sensor_id;sensor_type;location;lat;lon;timestamp;pressure;altitude;pressure_sealevel;temperature;humidity
57290;BME280;43523;53.022;-1.178;2023-04-16T00:00:50;101790.08;;;6.31;93.54
57290;BME280;43523;53.022;-1.178;2023-04-16T00:01:53;101791.81;;;6.48;92.70
57290;BME280;43523;53.022;-1.178;2023-04-16T00:02:55;101792.73;;;6.67;92.32
57290;BME280;43523;53.022;-1.178;2023-04-16T00:03:57;101793.08;;;5.82;100.00
57290;BME280;43523;53.022;-1.178;2023-04-16T00:05:00;101793.78;;;5.67;100.00
57290;BME280;43523;53.022;-1.178;2023-04-16T00:06:03;101793.96;;;6.31;100.00
57290;BME280;43523;53.022;-1.178;2023-04-16T00:07:05;101791.83;;;6.31;97.37
57290;BME280;43523;53.022;-1.178;2023-04-16T00:08:07;101791.15;;;6.35;93.30
57290;BME280;43523;53.022;-1.178;2023-04-16T00:09:10;101789.84;;;6.30;91.74
57290;BME280;43523;53.022;-1.178;2023-04-16T00:10:13;101791.35;;;6.21;90.11
57290;BME280;43523;53.022;-1.178;2023-04-16T00:11:15;101789.18;;;6.15;91.77
57290;BME280;43523;53.022;-1.178;2023-04-16T00:12:17;101789.14;;;6.24;92.99
57290;BME280;43523;53.022;-1.178;2023-04-16T00:13:19;101787.70;;;5.96;95.57
57290;BME280;43523;53.022;-1.178;2023-04-16T00:14:22;101789.00;;;6.24;91.68
57290;BME280;43523;53.022;-1.178;2023-04-16T00:15:24;101787.36;;;5.96;91.96
57290;BME280;43523;53.022;-1.178;2023-04-16T00:16:27;101787.52;;;6.09;93.87
57290;BME280;43523;53.022;-1.178;2023-04-16T00:17:29;101789.72;;;5.93;100.00
57290;BME280;43523;53.022;-1.178;2023-04-16T00:18:32;101791.81;;;5.77;100.00
57290;BME280;43523;53.022;-1.178;2023-04-16T00:19:35;101788.92;;;5.77;100.00
57290;BME280;43523;53.022;-1.178;2023-04-16T00:20:37;101786.86;;;5.88;99.29
57290;BME280;43523;53.022;-1.178;2023-04-16T00:21:39;101786.66;;;6.31;95.56
57290;BME280;43523;53.022;-1.178;2023-04-16T00:22:40;101786.45;;;6.29;93.63
57290;BME280;43523;53.022;-1.178;2023-04-16T00:23:43;101783.68;;;6.28;90.90
57290;BME280;43523;53.022;-1.178;2023-04-16T00:24:46;101783.57;;;5.92;90.17
57290;BME280;43523;53.022;-1.178;2023-04-16T00:25:49;101786.75;;;5.87;90.34
57290;BME280;43523;53.022;-1.178;2023-04-16T00:26:51;101784.95;;;5.57;93.37
57290;BME280;43523;53.022;-1.178;2023-04-16T00:27:53;101785.96;;;5.97;94.23
57290;BME280;43523;53.022;-1.178;2023-04-16T00:28:56;101786.81;;;5.70;94.61
57290;BME280;43523;53.022;-1.178;2023-04-16T00:29:58;101786.04;;;5.60;97.98
57290;BME280;43523;53.022;-1.178;2023-04-16T00:31:01;101788.71;;;5.86;100.00
57290;BME280;43523;53.022;-1.178;2023-04-16T00:32:03;101790.20;;;5.54;100.00
57290;BME280;43523;53.022;-1.178;2023-04-16T00:33:06;101788.76;;;5.85;100.00
57290;BME280;43523;53.022;-1.178;2023-04-16T00:34:08;101787.59;;;5.86;100.00
57290;BME280;43523;53.022;-1.178;2023-04-16T00:35:11;101785.52;;;5.40;100.00
57290;BME280;43523;53.022;-1.178;2023-04-16T00:36:13;101787.88;;;5.70;100.00
57290;BME280;43523;53.022;-1.178;2023-04-16T00:37:15;101787.67;;;5.88;100.00
57290;BME280;43523;53.022;-1.178;2023-04-16T00:38:18;101792.53;;;5.19;100.00
57290;BME280;43523;53.022;-1.178;2023-04-16T00:39:20;101791.96;;;5.37;100.00
57290;BME280;43523;53.022;-1.178;2023-04-16T00:40:26;101791.80;;;5.47;100.00
57290;BME280;43523;53.022;-1.178;2023-04-16T00:41:29;101791.22;;;5.75;100.00
57290;BME280;43523;53.022;-1.178;2023-04-16T00:42:31;101791.48;;;5.53;100.00
57290;BME280;43523;53.022;-1.178;2023-04-16T00:43:34;101792.51;;;5.78;100.00
57290;BME280;43523;53.022;-1.178;2023-04-16T00:44:36;101792.39;;;5.77;100.00
57290;BME280;43523;53.022;-1.178;2023-04-16T00:45:38;101795.60;;;5.67;100.00
57290;BME280;43523;53.022;-1.178;2023-04-16T00:46:40;101795.36;;;5.46;100.00
57290;BME280;43523;53.022;-1.178;2023-04-16T00:47:44;101792.14;;;5.49;100.00
57290;BME280;43523;53.022;-1.178;2023-04-16T00:48:46;101792.83;;;5.21;100.00
57290;BME280;43523;53.022;-1.178;2023-04-16T00:49:50;101791.92;;;5.40;100.00
57290;BME280;43523;53.022;-1.178;2023-04-16T00:50:52;101792.98;;;5.43;100.00
57290;BME280;43523;53.022;-1.178;2023-04-16T00:51:55;101791.37;;;5.24;100.00
57290;BME280;43523;53.022;-1.178;2023-04-16T00:52:58;101790.00;;;5.54;100.00
57290;BME280;43523;53.022;-1.178;2023-04-16T00:54:01;101789.65;;;5.14;100.00
57290;BME280;43523;53.022;-1.178;2023-04-16T00:55:04;101785.36;;;5.46;100.00
57290;BME280;43523;53.022;-1.178;2023-04-16T00:56:08;101785.53;;;5.52;96.13
57290;BME280;43523;53.022;-1.178;2023-04-16T00:57:13;101786.34;;;5.14;100.00
57290;BME280;43523;53.022;-1.178;2023-04-16T00:58:15;101785.34;;;4.91;100.00
57290;BME280;43523;53.022;-1.178;2023-04-16T00:59:18;101783.84;;;5.31;100.00
57290;BME280;43523;53.022;-1.178;2023-04-16T01:00:21;101785.45;;;5.09;100.00
57290;BME280;43523;53.022;-1.178;2023-04-16T01:01:24;101785.92;;;5.14;100.00
57290;BME280;43523;53.022;-1.178;2023-04-16T01:02:26;101787.13;;;4.98;100.00
57290;BME280;43523;53.022;-1.178;2023-04-16T01:03:36;101786.80;;;5.05;100.00
57290;BME280;43523;53.022;-1.178;2023-04-16T01:04:38;101786.54;;;5.37;100.00
57290;BME280;43523;53.022;-1.178;2023-04-16T01:05:40;101786.91;;;5.43;100.00
57290;BME280;43523;53.022;-1.178;2023-04-16T01:06:44;101785.25;;;5.44;95.51
57290;BME280;43523;53.022;-1.178;2023-04-16T01:07:46;101783.70;;;5.30;100.00
57290;BME280;43523;53.022;-1.178;2023-04-16T01:08:48;101784.10;;;5.23;97.99
57290;BME280;43523;53.022;-1.178;2023-04-16T01:09:50;101781.34;;;5.28;93.32
57290;BME280;43523;53.022;-1.178;2023-04-16T01:10:53;101783.23;;;5.18;93.87
57290;BME280;43523;53.022;-1.178;2023-04-16T01:11:56;101781.35;;;5.08;91.92
57290;BME280;43523;53.022;-1.178;2023-04-16T01:12:58;101781.00;;;5.04;91.59
57290;BME280;43523;53.022;-1.178;2023-04-16T01:14:01;101780.55;;;4.96;90.78
57290;BME280;43523;53.022;-1.178;2023-04-16T01:15:04;101781.45;;;4.87;91.93
57290;BME280;43523;53.022;-1.178;2023-04-16T01:16:09;101782.77;;;4.86;94.66
57290;BME280;43523;53.022;-1.178;2023-04-16T01:17:12;101781.15;;;5.12;94.21
57290;BME280;43523;53.022;-1.178;2023-04-16T01:18:14;101781.66;;;4.89;94.58
57290;BME280;43523;53.022;-1.178;2023-04-16T01:19:17;101784.40;;;4.69;100.00
57290;BME280;43523;53.022;-1.178;2023-04-16T01:20:19;101784.68;;;4.71;100.00
57290;BME280;43523;53.022;-1.178;2023-04-16T01:21:23;101784.22;;;4.86;100.00
57290;BME280;43523;53.022;-1.178;2023-04-16T01:22:25;101785.02;;;4.82;100.00
57290;BME280;43523;53.022;-1.178;2023-04-16T01:23:27;101786.12;;;4.87;100.00
57290;BME280;43523;53.022;-1.178;2023-04-16T01:24:30;101786.62;;;4.87;100.00
57290;BME280;43523;53.022;-1.178;2023-04-16T01:25:32;101783.55;;;4.81;100.00
57290;BME280;43523;53.022;-1.178;2023-04-16T01:26:35;101784.62;;;5.15;100.00
57290;BME280;43523;53.022;-1.178;2023-04-16T01:27:37;101781.86;;;5.24;100.00
57290;BME280;43523;53.022;-1.178;2023-04-16T01:28:39;101783.58;;;5.24;98.01
57290;BME280;43523;53.022;-1.178;2023-04-16T01:29:44;101781.10;;;5.30;97.18
57290;BME280;43523;53.022;-1.178;2023-04-16T01:30:46;101781.86;;;5.31;95.99
57290;BME280;43523;53.022;-1.178;2023-04-16T01:31:49;101780.63;;;5.26;96.41
57290;BME280;43523;53.022;-1.178;2023-04-16T01:32:51;101781.62;;;5.21;100.00
57290;BME280;43523;53.022;-1.178;2023-04-16T01:33:53;101781.02;;;5.30;97.03
57290;BME280;43523;53.022;-1.178;2023-04-16T01:34:56;101779.89;;;5.33;95.86
57290;BME280;43523;53.022;-1.178;2023-04-16T01:35:58;101780.33;;;5.27;99.17
57290;BME280;43523;53.022;-1.178;2023-04-16T01:37:02;101781.43;;;5.28;98.18
57290;BME280;43523;53.022;-1.178;2023-04-16T01:38:05;101780.10;;;5.31;97.07
57290;BME280;43523;53.022;-1.178;2023-04-16T01:39:08;101780.31;;;5.33;95.68
57290;BME280;43523;53.022;-1.178;2023-04-16T01:40:10;101779.86;;;5.33;96.48
57290;BME280;43523;53.022;-1.178;2023-04-16T01:41:12;101780.61;;;5.33;97.44
57290;BME280;43523;53.022;-1.178;2023-04-16T01:42:14;101780.69;;;5.33;97.96
57290;BME280;43523;53.022;-1.178;2023-04-16T01:43:17;101780.26;;;5.12;99.39
57290;BME280;43523;53.022;-1.178;2023-04-16T01:44:19;101780.53;;;5.40;98.51
57290;BME280;43523;53.022;-1.178;2023-04-16T01:45:22;101780.75;;;5.33;100.00
57290;BME280;43523;53.022;-1.178;2023-04-16T01:46:27;101778.30;;;5.47;100.00
57290;BME280;43523;53.022;-1.178;2023-04-16T01:47:29;101778.21;;;5.40;100.00
57290;BME280;43523;53.022;-1.178;2023-04-16T01:48:32;101779.67;;;5.43;100.00
57290;BME280;43523;53.022;-1.178;2023-04-16T01:49:34;101779.31;;;5.15;100.00
57290;BME280;43523;53.022;-1.178;2023-04-16T01:50:36;101778.47;;;4.83;100.00
57290;BME280;43523;53.022;-1.178;2023-04-16T01:51:39;101781.85;;;4.63;100.00
57290;BME280;43523;53.022;-1.178;2023-04-16T01:52:41;101780.35;;;4.76;100.00
57290;BME280;43523;53.022;-1.178;2023-04-16T01:53:44;101779.71;;;5.26;100.00
57290;BME280;43523;53.022;-1.178;2023-04-16T01:54:46;101780.37;;;5.36;100.00
57290;BME280;43523;53.022;-1.178;2023-04-16T01:55:48;101779.42;;;5.13;100.00
57290;BME280;43523;53.022;-1.178;2023-04-16T01:56:50;101781.80;;;5.20;100.00
57290;BME280;43523;53.022;-1.178;2023-04-16T01:57:53;101780.92;;;5.39;100.00
57290;BME280;43523;53.022;-1.178;2023-04-16T01:58:55;101778.76;;;5.38;100.00
57290;BME280;43523;53.022;-1.178;2023-04-16T01:59:57;101778.10;;;5.16;100.00
57290;BME280;43523;53.022;-1.178;2023-04-16T02:00:59;101777.69;;;5.38;100.00
57290;BME280;43523;53.022;-1.178;2023-04-16T02:02:06;101779.33;;;5.29;100.00
57290;BME280;43523;53.022;-1.178;2023-04-16T02:03:09;101776.34;;;4.99;100.00
57290;BME280;43523;53.022;-1.178;2023-04-16T02:04:11;101778.11;;;4.82;100.00
57290;BME280;43523;53.022;-1.178;2023-04-16T02:05:14;101776.47;;;5.00;100.00
57290;BME280;43523;53.022;-1.178;2023-04-16T02:06:17;101775.63;;;5.23;100.00
57290;BME280;43523;53.022;-1.178;2023-04-16T02:07:19;101775.69;;;5.13;100.00
57290;BME280;43523;53.022;-1.178;2023-04-16T02:08:22;101775.33;;;5.16;100.00
57290;BME280;43523;53.022;-1.178;2023-04-16T02:09:24;101774.23;;;4.64;100.00
57290;BME280;43523;53.022;-1.178;2023-04-16T02:10:26;101776.52;;;5.30;100.00
57290;BME280;43523;53.022;-1.178;2023-04-16T02:11:29;101772.41;;;5.22;100.00
57290;BME280;43523;53.022;-1.178;2023-04-16T02:12:31;101770.51;;;4.62;100.00
57290;BME280;43523;53.022;-1.178;2023-04-16T02:13:33;101771.35;;;4.63;100.00
57290;BME280;43523;53.022;-1.178;2023-04-16T02:14:35;101770.83;;;4.55;100.00
57290;BME280;43523;53.022;-1.178;2023-04-16T02:15:37;101771.34;;;4.96;100.00
57290;BME280;43523;53.022;-1.178;2023-04-16T02:16:39;101769.78;;;5.25;100.00
57290;BME280;43523;53.022;-1.178;2023-04-16T02:17:43;101762.67;;;5.46;100.00
57290;BME280;43523;53.022;-1.178;2023-04-16T02:18:45;101761.66;;;5.81;100.00
57290;BME280;43523;53.022;-1.178;2023-04-16T02:19:47;101761.20;;;5.76;100.00
57290;BME280;43523;53.022;-1.178;2023-04-16T02:20:50;101763.21;;;5.65;100.00
57290;BME280;43523;53.022;-1.178;2023-04-16T02:21:52;101758.11;;;5.70;100.00
57290;BME280;43523;53.022;-1.178;2023-04-16T02:22:54;101759.41;;;5.64;100.00
57290;BME280;43523;53.022;-1.178;2023-04-16T02:23:56;101760.35;;;5.80;100.00
57290;BME280;43523;53.022;-1.178;2023-04-16T02:24:59;101758.70;;;5.86;100.00
57290;BME280;43523;53.022;-1.178;2023-04-16T02:26:02;101759.78;;;5.37;100.00
57290;BME280;43523;53.022;-1.178;2023-04-16T02:27:04;101758.33;;;5.67;100.00
57290;BME280;43523;53.022;-1.178;2023-04-16T02:28:06;101760.79;;;5.67;100.00
57290;BME280;43523;53.022;-1.178;2023-04-16T02:29:08;101762.13;;;5.72;100.00
57290;BME280;43523;53.022;-1.178;2023-04-16T02:30:11;101760.89;;;5.54;100.00
57290;BME280;43523;53.022;-1.178;2023-04-16T02:31:13;101761.52;;;5.46;100.00
57290;BME280;43523;53.022;-1.178;2023-04-16T02:32:16;101763.03;;;5.41;100.00
57290;BME280;43523;53.022;-1.178;2023-04-16T02:33:18;101763.42;;;5.60;100.00
57290;BME280;43523;53.022;-1.178;2023-04-16T02:34:21;101760.89;;;5.66;100.00
57290;BME280;43523;53.022;-1.178;2023-04-16T02:35:23;101759.39;;;5.65;100.00
57290;BME280;43523;53.022;-1.178;2023-04-16T02:36:26;101755.15;;;5.18;100.00
57290;BME280;43523;53.022;-1.178;2023-04-16T02:37:28;101757.11;;;5.46;100.00
57290;BME280;43523;53.022;-1.178;2023-04-16T02:38:30;101756.40;;;5.45;100.00
57290;BME280;43523;53.022;-1.178;2023-04-16T02:39:32;101757.63;;;5.43;100.00
57290;BME280;43523;53.022;-1.178;2023-04-16T02:40:35;101752.91;;;5.57;100.00
57290;BME280;43523;53.022;-1.178;2023-04-16T02:41:37;101753.73;;;5.66;100.00
57290;BME280;43523;53.022;-1.178;2023-04-16T02:42:39;101752.00;;;5.74;100.00
57290;BME280;43523;53.022;-1.178;2023-04-16T02:43:43;101751.14;;;5.96;99.97
57290;BME280;43523;53.022;-1.178;2023-04-16T02:44:45;101748.59;;;5.67;100.00
57290;BME280;43523;53.022;-1.178;2023-04-16T02:45:48;101750.86;;;5.86;100.00
57290;BME280;43523;53.022;-1.178;2023-04-16T02:46:50;101749.71;;;5.64;100.00
57290;BME280;43523;53.022;-1.178;2023-04-16T02:47:52;101749.22;;;5.81;100.00
57290;BME280;43523;53.022;-1.178;2023-04-16T02:48:54;101746.37;;;5.57;100.00
57290;BME280;43523;53.022;-1.178;2023-04-16T02:49:56;101745.30;;;5.80;100.00
57290;BME280;43523;53.022;-1.178;2023-04-16T02:50:59;101746.61;;;5.48;100.00
57290;BME280;43523;53.022;-1.178;2023-04-16T02:52:01;101743.41;;;5.54;100.00
57290;BME280;43523;53.022;-1.178;2023-04-16T02:53:05;101746.32;;;5.71;100.00
57290;BME280;43523;53.022;-1.178;2023-04-16T02:54:07;101745.22;;;5.48;100.00
57290;BME280;43523;53.022;-1.178;2023-04-16T02:55:10;101745.77;;;5.66;100.00
57290;BME280;43523;53.022;-1.178;2023-04-16T02:56:12;101743.38;;;5.58;100.00
57290;BME280;43523;53.022;-1.178;2023-04-16T02:57:14;101742.86;;;5.97;100.00
57290;BME280;43523;53.022;-1.178;2023-04-16T02:58:17;101743.97;;;5.53;100.00
57290;BME280;43523;53.022;-1.178;2023-04-16T02:59:19;101742.32;;;5.76;100.00
57290;BME280;43523;53.022;-1.178;2023-04-16T03:00:23;101742.27;;;6.01;100.00
57290;BME280;43523;53.022;-1.178;2023-04-16T03:01:25;101741.22;;;5.57;100.00
57290;BME280;43523;53.022;-1.178;2023-04-16T03:02:27;101740.18;;;5.60;100.00
57290;BME280;43523;53.022;-1.178;2023-04-16T03:03:30;101738.33;;;5.80;100.00
57290;BME280;43523;53.022;-1.178;2023-04-16T03:04:32;101739.40;;;5.87;100.00
57290;BME280;43523;53.022;-1.178;2023-04-16T03:05:35;101736.70;;;5.69;100.00
57290;BME280;43523;53.022;-1.178;2023-04-16T03:06:37;101737.91;;;5.71;100.00
57290;BME280;43523;53.022;-1.178;2023-04-16T03:07:39;101734.02;;;5.66;100.00
57290;BME280;43523;53.022;-1.178;2023-04-16T03:08:41;101735.19;;;5.75;100.00
57290;BME280;43523;53.022;-1.178;2023-04-16T03:09:44;101735.52;;;5.61;100.00
57290;BME280;43523;53.022;-1.178;2023-04-16T03:10:46;101735.54;;;5.81;100.00
57290;BME280;43523;53.022;-1.178;2023-04-16T03:11:48;101734.47;;;5.73;100.00
57290;BME280;43523;53.022;-1.178;2023-04-16T03:12:50;101732.19;;;5.43;100.00
57290;BME280;43523;53.022;-1.178;2023-04-16T03:13:53;101734.67;;;5.85;100.00
57290;BME280;43523;53.022;-1.178;2023-04-16T03:14:55;101734.02;;;6.19;100.00
57290;BME280;43523;53.022;-1.178;2023-04-16T03:15:57;101731.80;;;5.95;100.00
57290;BME280;43523;53.022;-1.178;2023-04-16T03:17:00;101732.96;;;5.96;100.00
57290;BME280;43523;53.022;-1.178;2023-04-16T03:18:02;101732.94;;;6.00;100.00
57290;BME280;43523;53.022;-1.178;2023-04-16T03:19:04;101732.41;;;5.76;100.00
57290;BME280;43523;53.022;-1.178;2023-04-16T03:20:08;101730.42;;;6.05;100.00
57290;BME280;43523;53.022;-1.178;2023-04-16T03:21:10;101728.08;;;5.85;100.00
57290;BME280;43523;53.022;-1.178;2023-04-16T03:22:12;101728.61;;;6.28;100.00
57290;BME280;43523;53.022;-1.178;2023-04-16T03:23:15;101729.48;;;5.77;100.00
57290;BME280;43523;53.022;-1.178;2023-04-16T03:24:17;101730.70;;;5.80;100.00
57290;BME280;43523;53.022;-1.178;2023-04-16T03:25:19;101730.73;;;5.56;100.00
57290;BME280;43523;53.022;-1.178;2023-04-16T03:26:22;101733.90;;;5.13;100.00
57290;BME280;43523;53.022;-1.178;2023-04-16T03:27:25;101737.10;;;4.91;100.00
57290;BME280;43523;53.022;-1.178;2023-04-16T03:28:27;101731.92;;;5.21;100.00
57290;BME280;43523;53.022;-1.178;2023-04-16T03:29:30;101730.73;;;5.21;100.00
57290;BME280;43523;53.022;-1.178;2023-04-16T03:30:32;101727.50;;;5.41;100.00
57290;BME280;43523;53.022;-1.178;2023-04-16T03:31:35;101726.49;;;5.49;100.00
57290;BME280;43523;53.022;-1.178;2023-04-16T03:32:37;101725.14;;;5.72;100.00
57290;BME280;43523;53.022;-1.178;2023-04-16T03:33:40;101728.87;;;5.24;100.00
57290;BME280;43523;53.022;-1.178;2023-04-16T03:34:41;101730.31;;;5.54;100.00
57290;BME280;43523;53.022;-1.178;2023-04-16T03:35:44;101730.11;;;5.49;100.00
57290;BME280;43523;53.022;-1.178;2023-04-16T03:36:47;101730.06;;;5.24;100.00
57290;BME280;43523;53.022;-1.178;2023-04-16T03:37:49;101733.27;;;5.15;100.00
57290;BME280;43523;53.022;-1.178;2023-04-16T03:38:52;101731.17;;;4.96;100.00
57290;BME280;43523;53.022;-1.178;2023-04-16T03:39:55;101730.38;;;5.12;100.00
57290;BME280;43523;53.022;-1.178;2023-04-16T03:40:57;101729.81;;;5.15;100.00
57290;BME280;43523;53.022;-1.178;2023-04-16T03:41:59;101726.56;;;5.24;100.00
57290;BME280;43523;53.022;-1.178;2023-04-16T03:43:01;101723.61;;;5.26;100.00
57290;BME280;43523;53.022;-1.178;2023-04-16T03:44:04;101722.63;;;5.31;100.00
57290;BME280;43523;53.022;-1.178;2023-04-16T03:45:06;101722.20;;;5.28;100.00
57290;BME280;43523;53.022;-1.178;2023-04-16T03:46:09;101720.45;;;5.44;100.00
57290;BME280;43523;53.022;-1.178;2023-04-16T03:47:11;101717.95;;;5.51;100.00
57290;BME280;43523;53.022;-1.178;2023-04-16T03:48:14;101715.50;;;5.53;100.00
57290;BME280;43523;53.022;-1.178;2023-04-16T03:49:16;101717.51;;;5.44;100.00
57290;BME280;43523;53.022;-1.178;2023-04-16T03:50:19;101715.63;;;5.44;100.00
57290;BME280;43523;53.022;-1.178;2023-04-16T03:51:23;101712.77;;;5.59;100.00
57290;BME280;43523;53.022;-1.178;2023-04-16T03:52:25;101712.77;;;5.55;100.00
57290;BME280;43523;53.022;-1.178;2023-04-16T03:53:27;101714.28;;;5.62;100.00
57290;BME280;43523;53.022;-1.178;2023-04-16T03:54:29;101712.23;;;5.51;100.00
57290;BME280;43523;53.022;-1.178;2023-04-16T03:55:32;101713.47;;;5.47;100.00
57290;BME280;43523;53.022;-1.178;2023-04-16T03:56:34;101711.66;;;5.90;100.00
57290;BME280;43523;53.022;-1.178;2023-04-16T03:57:36;101713.05;;;6.20;100.00
57290;BME280;43523;53.022;-1.178;2023-04-16T03:58:38;101708.52;;;5.54;100.00
57290;BME280;43523;53.022;-1.178;2023-04-16T03:59:40;101711.34;;;6.31;100.00
57290;BME280;43523;53.022;-1.178;2023-04-16T04:00:43;101711.12;;;6.07;100.00
57290;BME280;43523;53.022;-1.178;2023-04-16T04:01:46;101711.94;;;5.86;100.00
57290;BME280;43523;53.022;-1.178;2023-04-16T04:02:48;101712.66;;;6.16;100.00
57290;BME280;43523;53.022;-1.178;2023-04-16T04:03:51;101712.41;;;5.91;100.00
57290;BME280;43523;53.022;-1.178;2023-04-16T04:04:52;101712.05;;;5.91;100.00
57290;BME280;43523;53.022;-1.178;2023-04-16T04:05:55;101712.21;;;5.89;100.00
57290;BME280;43523;53.022;-1.178;2023-04-16T04:06:57;101710.90;;;6.12;100.00
57290;BME280;43523;53.022;-1.178;2023-04-16T04:07:59;101710.68;;;5.93;100.00
57290;BME280;43523;53.022;-1.178;2023-04-16T04:09:02;101710.73;;;5.63;100.00
57290;BME280;43523;53.022;-1.178;2023-04-16T04:10:06;101707.95;;;6.12;100.00
57290;BME280;43523;53.022;-1.178;2023-04-16T04:11:09;101705.70;;;6.17;100.00
57290;BME280;43523;53.022;-1.178;2023-04-16T04:12:12;101706.23;;;6.14;100.00
57290;BME280;43523;53.022;-1.178;2023-04-16T04:13:14;101705.36;;;5.91;100.00
57290;BME280;43523;53.022;-1.178;2023-04-16T04:14:16;101700.83;;;5.96;100.00
57290;BME280;43523;53.022;-1.178;2023-04-16T04:15:18;101699.55;;;5.94;100.00
57290;BME280;43523;53.022;-1.178;2023-04-16T04:16:20;101702.72;;;6.08;100.00
57290;BME280;43523;53.022;-1.178;2023-04-16T04:17:23;101702.79;;;5.70;100.00
57290;BME280;43523;53.022;-1.178;2023-04-16T04:18:25;101701.33;;;5.65;100.00
57290;BME280;43523;53.022;-1.178;2023-04-16T04:19:28;101700.64;;;5.57;100.00
57290;BME280;43523;53.022;-1.178;2023-04-16T04:20:30;101701.31;;;5.84;100.00
57290;BME280;43523;53.022;-1.178;2023-04-16T04:21:33;101701.04;;;5.82;100.00
57290;BME280;43523;53.022;-1.178;2023-04-16T04:22:35;101700.64;;;5.66;100.00
57290;BME280;43523;53.022;-1.178;2023-04-16T04:23:37;101701.47;;;5.74;100.00
57290;BME280;43523;53.022;-1.178;2023-04-16T04:24:39;101702.96;;;5.50;100.00
57290;BME280;43523;53.022;-1.178;2023-04-16T04:25:53;101704.24;;;5.79;100.00
57290;BME280;43523;53.022;-1.178;2023-04-16T04:26:55;101701.65;;;5.29;100.00
57290;BME280;43523;53.022;-1.178;2023-04-16T04:27:57;101703.32;;;5.79;100.00
57290;BME280;43523;53.022;-1.178;2023-04-16T04:29:00;101702.43;;;5.29;100.00
57290;BME280;43523;53.022;-1.178;2023-04-16T04:30:03;101698.98;;;5.66;100.00
57290;BME280;43523;53.022;-1.178;2023-04-16T04:31:05;101703.18;;;5.37;100.00
57290;BME280;43523;53.022;-1.178;2023-04-16T04:32:08;101700.21;;;5.44;100.00
57290;BME280;43523;53.022;-1.178;2023-04-16T04:33:10;101700.16;;;5.58;100.00
57290;BME280;43523;53.022;-1.178;2023-04-16T04:34:12;101699.39;;;6.12;100.00
57290;BME280;43523;53.022;-1.178;2023-04-16T04:35:15;101695.48;;;6.04;100.00
57290;BME280;43523;53.022;-1.178;2023-04-16T04:36:17;101696.62;;;6.06;100.00
57290;BME280;43523;53.022;-1.178;2023-04-16T04:37:19;101697.37;;;6.06;100.00
57290;BME280;43523;53.022;-1.178;2023-04-16T04:38:22;101699.40;;;6.21;100.00
57290;BME280;43523;53.022;-1.178;2023-04-16T04:39:25;101700.31;;;5.78;100.00
57290;BME280;43523;53.022;-1.178;2023-04-16T04:40:27;101699.86;;;5.77;100.00
57290;BME280;43523;53.022;-1.178;2023-04-16T04:41:29;101699.84;;;6.02;100.00
57290;BME280;43523;53.022;-1.178;2023-04-16T04:42:32;101700.17;;;6.09;100.00
57290;BME280;43523;53.022;-1.178;2023-04-16T04:43:34;101703.11;;;6.17;100.00
57290;BME280;43523;53.022;-1.178;2023-04-16T04:44:36;101701.28;;;5.90;100.00
57290;BME280;43523;53.022;-1.178;2023-04-16T04:45:39;101704.53;;;5.99;100.00
57290;BME280;43523;53.022;-1.178;2023-04-16T04:46:41;101705.78;;;5.93;100.00
57290;BME280;43523;53.022;-1.178;2023-04-16T04:47:44;101702.91;;;5.91;100.00
57290;BME280;43523;53.022;-1.178;2023-04-16T04:48:46;101705.15;;;5.72;100.00
57290;BME280;43523;53.022;-1.178;2023-04-16T04:49:49;101704.90;;;5.84;100.00
57290;BME280;43523;53.022;-1.178;2023-04-16T04:50:51;101703.66;;;5.82;100.00
57290;BME280;43523;53.022;-1.178;2023-04-16T04:51:53;101701.70;;;6.34;100.00
57290;BME280;43523;53.022;-1.178;2023-04-16T04:52:56;101702.16;;;5.61;100.00
57290;BME280;43523;53.022;-1.178;2023-04-16T04:53:58;101704.34;;;5.81;100.00
57290;BME280;43523;53.022;-1.178;2023-04-16T04:55:01;101703.33;;;5.54;100.00
57290;BME280;43523;53.022;-1.178;2023-04-16T04:56:03;101705.48;;;5.73;100.00
57290;BME280;43523;53.022;-1.178;2023-04-16T04:57:06;101702.30;;;6.15;100.00
57290;BME280;43523;53.022;-1.178;2023-04-16T04:58:08;101705.24;;;5.80;100.00
57290;BME280;43523;53.022;-1.178;2023-04-16T04:59:10;101707.28;;;5.88;100.00
57290;BME280;43523;53.022;-1.178;2023-04-16T05:00:13;101706.35;;;6.16;100.00
57290;BME280;43523;53.022;-1.178;2023-04-16T05:01:15;101704.82;;;6.15;100.00
57290;BME280;43523;53.022;-1.178;2023-04-16T05:02:18;101707.35;;;5.91;100.00
57290;BME280;43523;53.022;-1.178;2023-04-16T05:03:20;101708.01;;;5.80;100.00
57290;BME280;43523;53.022;-1.178;2023-04-16T05:04:23;101709.44;;;5.84;100.00
57290;BME280;43523;53.022;-1.178;2023-04-16T05:05:25;101710.11;;;5.75;100.00
57290;BME280;43523;53.022;-1.178;2023-04-16T05:06:27;101712.15;;;5.86;100.00
57290;BME280;43523;53.022;-1.178;2023-04-16T05:07:30;101714.93;;;5.90;100.00
57290;BME280;43523;53.022;-1.178;2023-04-16T05:08:32;101713.39;;;5.65;100.00
57290;BME280;43523;53.022;-1.178;2023-04-16T05:09:35;101715.98;;;5.81;100.00
57290;BME280;43523;53.022;-1.178;2023-04-16T05:10:37;101717.56;;;5.71;100.00
57290;BME280;43523;53.022;-1.178;2023-04-16T05:11:41;101716.96;;;5.85;100.00
57290;BME280;43523;53.022;-1.178;2023-04-16T05:12:45;101717.34;;;6.14;100.00
57290;BME280;43523;53.022;-1.178;2023-04-16T05:13:47;101717.18;;;6.12;100.00
57290;BME280;43523;53.022;-1.178;2023-04-16T05:14:50;101718.92;;;5.85;100.00
57290;BME280;43523;53.022;-1.178;2023-04-16T05:15:52;101719.26;;;6.09;100.00
57290;BME280;43523;53.022;-1.178;2023-04-16T05:16:55;101722.15;;;6.11;100.00
57290;BME280;43523;53.022;-1.178;2023-04-16T05:17:57;101722.59;;;6.17;100.00
57290;BME280;43523;53.022;-1.178;2023-04-16T05:18:59;101721.66;;;6.43;100.00
57290;BME280;43523;53.022;-1.178;2023-04-16T05:20:01;101722.27;;;6.40;100.00
57290;BME280;43523;53.022;-1.178;2023-04-16T05:21:04;101724.70;;;6.36;100.00
57290;BME280;43523;53.022;-1.178;2023-04-16T05:22:06;101725.59;;;6.40;100.00
57290;BME280;43523;53.022;-1.178;2023-04-16T05:23:08;101725.41;;;6.45;100.00